Fountain, Florida
Current Conditions -  °F | °C
As of 11:53 AM on Friday 24 Oct 2014 (Local Time) from KECP Reporting Station
Clear Clear  
Wind Chill: 74°   Ceiling: Unl
Heat Index: 74°   Visibility: 10mi
Dew Point: 44°   Wind: 5mph
Humidity: 34%   Direction: 310°NW
Pressure: 30.04"   Gusts: NA
Location:  30.48°N, 85.42°W
Report Text: KECP 241653Z 31004KT 10SM CLR 23/07 A3004 RMK AO2 SLP184 T02330067
Loading
Personal Weather Stations






























Interactive Weather Map
Tropical Storm Tracking
New forecast layout! Learn more

10-Day Weather Forecast

Advertisements
Track Severe Weather on mobile